Time,TemperatureF,DewpointF,PressureIn,WindDirection,WindDirectionDegrees,WindSpeedMPH,WindSpeedGustMPH,Humidity,HourlyPrecipIn,Conditions,Clouds,dailyrainin,SolarRadiationWatts/m^2,SoftwareType,DateUTC
2013-02-21 00:21:00,39.0,26.0,-100.00,West,275,21.0,29.0,60,0.00,,,0.01,0.000000,,2013-02-21 08:21:00,
2013-02-21 00:31:00,39.0,26.0,-100.00,West,275,21.0,29.0,60,0.00,,,0.01,0.000000,,2013-02-21 08:31:00,
2013-02-21 00:41:00,39.0,26.0,-100.00,West,275,21.0,29.0,60,0.00,,,0.01,0.000000,,2013-02-21 08:41:00,
2013-02-21 00:51:00,39.0,26.0,-100.00,West,275,21.0,29.0,60,0.00,,,0.01,0.000000,,2013-02-21 08:51:00,
2013-02-21 01:22:00,39.0,27.0,-100.00,WNW,284,22.0,36.0,63,0.00,,,0.01,0.000000,,2013-02-21 09:22:00,
2013-02-21 01:31:00,39.0,27.0,-100.00,WNW,284,22.0,36.0,63,0.00,,,0.01,0.000000,,2013-02-21 09:31:00,
2013-02-21 01:41:00,39.0,27.0,-100.00,WNW,284,22.0,36.0,63,0.00,,,0.01,0.000000,,2013-02-21 09:41:00,
2013-02-21 01:51:00,39.0,27.0,-100.00,WNW,284,22.0,36.0,63,0.00,,,0.01,0.000000,,2013-02-21 09:51:00,
2013-02-21 02:21:00,37.0,26.0,-100.00,West,276,24.0,36.0,64,0.00,,,0.01,0.000000,,2013-02-21 10:21:00,
2013-02-21 02:31:00,37.0,26.0,-100.00,West,276,24.0,36.0,64,0.00,,,0.01,0.000000,,2013-02-21 10:31:00,
2013-02-21 02:41:00,37.0,26.0,-100.00,West,276,24.0,36.0,64,0.00,,,0.01,0.000000,,2013-02-21 10:41:00,
2013-02-21 02:51:00,37.0,26.0,-100.00,West,276,24.0,36.0,64,0.00,,,0.01,0.000000,,2013-02-21 10:51:00,
2013-02-21 03:21:00,37.0,25.0,-100.00,West,276,21.0,34.0,62,0.00,,,0.01,0.000000,,2013-02-21 11:21:00,
2013-02-21 03:31:00,37.0,25.0,-100.00,West,276,21.0,34.0,62,0.00,,,0.01,0.000000,,2013-02-21 11:31:00,
2013-02-21 03:41:00,37.0,25.0,-100.00,West,276,21.0,34.0,62,0.00,,,0.01,0.000000,,2013-02-21 11:41:00,
2013-02-21 03:51:00,37.0,25.0,-100.00,West,276,21.0,34.0,62,0.00,,,0.01,0.000000,,2013-02-21 11:51:00,
2013-02-21 04:21:00,38.0,27.0,-100.00,WNW,288,24.0,32.0,64,0.00,,,0.01,0.000000,,2013-02-21 12:21:00,
2013-02-21 04:32:00,38.0,27.0,-100.00,WNW,288,24.0,32.0,64,0.00,,,0.01,0.000000,,2013-02-21 12:32:00,
2013-02-21 04:42:00,38.0,27.0,-100.00,WNW,288,24.0,32.0,64,0.00,,,0.01,0.000000,,2013-02-21 12:42:00,
2013-02-21 04:52:00,38.0,27.0,-100.00,WNW,288,24.0,32.0,64,0.00,,,0.01,0.000000,,2013-02-21 12:52:00,
2013-02-21 05:22:00,38.0,27.0,-100.00,West,275,26.0,36.0,64,0.00,,,0.01,0.000000,,2013-02-21 13:22:00,
2013-02-21 05:32:00,38.0,27.0,-100.00,West,275,26.0,36.0,64,0.00,,,0.01,0.000000,,2013-02-21 13:32:00,
2013-02-21 05:41:00,38.0,27.0,-100.00,West,275,26.0,36.0,64,0.00,,,0.01,0.000000,,2013-02-21 13:41:00,
2013-02-21 05:51:00,38.0,27.0,-100.00,West,275,26.0,36.0,64,0.00,,,0.01,0.000000,,2013-02-21 13:51:00,
2013-02-21 06:21:00,38.0,26.0,-100.00,West,269,22.0,36.0,62,0.00,,,-99.99,0.000000,,2013-02-21 14:21:00,
2013-02-21 06:32:00,38.0,26.0,-100.00,West,269,22.0,36.0,62,0.00,,,-99.99,0.000000,,2013-02-21 14:32:00,
2013-02-21 06:41:00,38.0,26.0,-100.00,West,269,22.0,36.0,62,0.00,,,-99.99,0.000000,,2013-02-21 14:41:00,
2013-02-21 06:52:00,38.0,26.0,-100.00,West,269,22.0,36.0,62,0.00,,,-99.99,0.000000,,2013-02-21 14:52:00,
2013-02-21 07:21:00,37.0,24.0,-100.00,West,269,26.0,41.0,60,0.00,,,0.01,4.000000,,2013-02-21 15:21:00,
2013-02-21 07:31:00,37.0,24.0,-100.00,West,269,26.0,41.0,60,0.00,,,0.01,4.000000,,2013-02-21 15:31:00,
2013-02-21 07:42:00,37.0,24.0,-100.00,West,269,26.0,41.0,60,0.00,,,0.01,4.000000,,2013-02-21 15:42:00,
2013-02-21 07:51:00,37.0,24.0,-100.00,West,269,26.0,41.0,60,0.00,,,0.01,4.000000,,2013-02-21 15:51:00,
2013-02-21 08:21:00,41.0,26.0,-100.00,West,261,19.0,38.0,54,0.00,,,0.01,144.000000,,2013-02-21 16:21:00,
2013-02-21 08:31:00,41.0,26.0,-100.00,West,261,19.0,38.0,54,0.00,,,0.01,144.000000,,2013-02-21 16:31:00,
2013-02-21 08:42:00,41.0,26.0,-100.00,West,261,19.0,38.0,54,0.00,,,0.01,144.000000,,2013-02-21 16:42:00,
2013-02-21 08:51:00,41.0,26.0,-100.00,West,261,19.0,38.0,54,0.00,,,0.01,144.000000,,2013-02-21 16:51:00,
2013-02-21 09:21:00,43.0,28.0,-100.00,WNW,285,21.0,39.0,56,0.00,,,0.01,271.000000,,2013-02-21 17:21:00,
2013-02-21 09:32:00,43.0,28.0,-100.00,WNW,285,21.0,39.0,56,0.00,,,0.01,271.000000,,2013-02-21 17:32:00,
2013-02-21 09:42:00,43.0,28.0,-100.00,WNW,285,21.0,39.0,56,0.00,,,0.01,271.000000,,2013-02-21 17:42:00,
2013-02-21 09:52:00,43.0,28.0,-100.00,WNW,285,21.0,39.0,56,0.00,,,0.01,271.000000,,2013-02-21 17:52:00,
2013-02-21 10:22:00,42.0,27.0,-100.00,WNW,290,20.0,29.0,55,0.00,,,0.00,278.000000,,2013-02-21 18:22:00,
2013-02-21 10:31:00,42.0,27.0,-100.00,WNW,290,20.0,29.0,55,0.00,,,0.00,278.000000,,2013-02-21 18:31:00,
2013-02-21 10:42:00,42.0,27.0,-100.00,WNW,290,20.0,29.0,55,0.00,,,0.00,278.000000,,2013-02-21 18:42:00,
2013-02-21 10:51:00,42.0,27.0,-100.00,WNW,290,20.0,29.0,55,0.00,,,0.00,278.000000,,2013-02-21 18:51:00,
2013-02-21 11:21:00,48.0,27.0,-100.00,WNW,297,16.0,30.0,44,0.00,,,0.00,604.000000,,2013-02-21 19:21:00,
2013-02-21 11:31:00,48.0,27.0,-100.00,WNW,297,16.0,30.0,44,0.00,,,0.00,604.000000,,2013-02-21 19:31:00,
2013-02-21 11:41:00,48.0,27.0,-100.00,WNW,297,16.0,30.0,44,0.00,,,0.00,604.000000,,2013-02-21 19:41:00,
2013-02-21 11:51:00,48.0,27.0,-100.00,WNW,297,16.0,30.0,44,0.00,,,0.00,604.000000,,2013-02-21 19:51:00,
2013-02-21 12:21:00,53.0,24.0,29.99,NNE,12,8.0,26.0,32,0.00,,,0.00,819.000000,,2013-02-21 20:21:00,
2013-02-21 12:31:00,53.0,24.0,29.99,NNE,12,8.0,26.0,32,0.00,,,0.00,819.000000,,2013-02-21 20:31:00,
2013-02-21 12:41:00,53.0,24.0,29.99,NNE,12,8.0,26.0,32,0.00,,,0.00,819.000000,,2013-02-21 20:41:00,
2013-02-21 12:52:00,53.0,24.0,29.99,NNE,12,8.0,26.0,32,0.00,,,0.00,819.000000,,2013-02-21 20:52:00,
2013-02-21 13:21:00,54.0,16.0,29.98,ENE,69,13.0,23.0,22,0.00,,,0.00,894.000000,,2013-02-21 21:21:00,
2013-02-21 13:31:00,54.0,16.0,29.98,ENE,69,13.0,23.0,22,0.00,,,0.00,894.000000,,2013-02-21 21:31:00,
2013-02-21 13:42:00,54.0,16.0,29.98,ENE,69,13.0,23.0,22,0.00,,,0.00,894.000000,,2013-02-21 21:42:00,
2013-02-21 13:51:00,54.0,16.0,29.98,ENE,69,13.0,23.0,22,0.00,,,0.00,894.000000,,2013-02-21 21:51:00,
2013-02-21 14:21:00,54.0,15.0,29.99,NE,41,13.0,25.0,21,0.00,,,0.00,791.000000,,2013-02-21 22:21:00,
2013-02-21 14:31:00,54.0,15.0,29.99,NE,41,13.0,25.0,21,0.00,,,0.00,791.000000,,2013-02-21 22:31:00,
2013-02-21 14:41:00,54.0,15.0,29.99,NE,41,13.0,25.0,21,0.00,,,0.00,791.000000,,2013-02-21 22:41:00,
2013-02-21 14:52:00,54.0,15.0,29.99,NE,41,13.0,25.0,21,0.00,,,0.00,791.000000,,2013-02-21 22:52:00,
2013-02-21 15:21:00,56.0,17.0,29.98,ENE,67,6.0,21.0,21,0.00,,,0.00,680.000000,,2013-02-21 23:21:00,
2013-02-21 15:31:00,56.0,17.0,29.98,ENE,67,6.0,21.0,21,0.00,,,0.00,680.000000,,2013-02-21 23:31:00,
2013-02-21 15:41:00,56.0,17.0,29.98,ENE,67,6.0,21.0,21,0.00,,,0.00,680.000000,,2013-02-21 23:41:00,
2013-02-21 15:52:00,56.0,17.0,29.98,ENE,67,6.0,21.0,21,0.00,,,0.00,680.000000,,2013-02-21 23:52:00,
2013-02-21 16:21:00,54.0,28.0,-100.00,WSW,258,12.0,16.0,37,0.00,,,0.00,497.000000,,2013-02-22 00:21:00,
2013-02-21 16:31:00,54.0,28.0,-100.00,WSW,258,12.0,16.0,37,0.00,,,0.00,497.000000,,2013-02-22 00:31:00,
2013-02-21 16:41:00,54.0,28.0,-100.00,WSW,258,12.0,16.0,37,0.00,,,0.00,497.000000,,2013-02-22 00:41:00,
2013-02-21 16:51:00,54.0,28.0,-100.00,WSW,258,12.0,16.0,37,0.00,,,0.00,497.000000,,2013-02-22 00:51:00,
2013-02-21 17:21:00,50.0,28.0,-100.00,West,269,11.0,60.0,43,0.00,,,0.00,185.000000,,2013-02-22 01:21:00,
2013-02-21 17:32:00,50.0,28.0,-100.00,West,269,11.0,60.0,43,0.00,,,0.00,185.000000,,2013-02-22 01:32:00,
2013-02-21 17:42:00,50.0,28.0,-100.00,West,269,11.0,60.0,43,0.00,,,0.00,185.000000,,2013-02-22 01:42:00,
2013-02-21 17:51:00,50.0,28.0,-100.00,West,269,11.0,60.0,43,0.00,,,0.00,185.000000,,2013-02-22 01:51:00,
2013-02-21 18:21:00,43.0,30.0,-100.00,West,271,16.0,25.0,59,0.00,,,0.00,17.000000,,2013-02-22 02:21:00,
2013-02-21 18:31:00,43.0,30.0,-100.00,West,271,16.0,25.0,59,0.00,,,0.00,17.000000,,2013-02-22 02:31:00,
2013-02-21 18:42:00,43.0,30.0,-100.00,West,271,16.0,25.0,59,0.00,,,0.00,17.000000,,2013-02-22 02:42:00,
2013-02-21 18:52:00,43.0,30.0,-100.00,West,271,16.0,25.0,59,0.00,,,0.00,17.000000,,2013-02-22 02:52:00,
2013-02-21 19:21:00,41.0,30.0,-100.00,WNW,283,14.0,24.0,65,0.00,,,0.00,0.000000,,2013-02-22 03:21:00,
2013-02-21 19:31:00,41.0,30.0,-100.00,WNW,283,14.0,24.0,65,0.00,,,0.00,0.000000,,2013-02-22 03:31:00,
2013-02-21 19:41:00,41.0,30.0,-100.00,WNW,283,14.0,24.0,65,0.00,,,0.00,0.000000,,2013-02-22 03:41:00,
2013-02-21 19:51:00,41.0,30.0,-100.00,WNW,283,14.0,24.0,65,0.00,,,0.00,0.000000,,2013-02-22 03:51:00,
2013-02-21 20:11:00,39.0,29.0,-100.00,West,275,16.0,23.0,67,0.00,,,0.00,0.000000,,2013-02-22 04:11:00,
2013-02-21 20:21:00,39.0,29.0,-100.00,West,275,16.0,23.0,67,0.00,,,0.00,0.000000,,2013-02-22 04:21:00,
2013-02-21 20:32:00,39.0,29.0,-100.00,West,275,16.0,23.0,67,0.00,,,0.00,0.000000,,2013-02-22 04:32:00,
2013-02-21 20:42:00,39.0,29.0,-100.00,West,275,16.0,23.0,67,0.00,,,0.00,0.000000,,2013-02-22 04:42:00,
2013-02-21 20:51:00,39.0,29.0,-100.00,West,275,16.0,23.0,67,0.00,,,0.00,0.000000,,2013-02-22 04:51:00,
2013-02-21 21:22:00,40.0,30.0,-100.00,West,275,17.0,24.0,68,0.00,,,0.00,0.000000,,2013-02-22 05:22:00,
2013-02-21 21:32:00,40.0,30.0,-100.00,West,275,17.0,24.0,68,0.00,,,0.00,0.000000,,2013-02-22 05:32:00,
2013-02-21 21:41:00,40.0,30.0,-100.00,West,275,17.0,24.0,68,0.00,,,0.00,0.000000,,2013-02-22 05:41:00,
2013-02-21 21:52:00,40.0,30.0,-100.00,West,275,17.0,24.0,68,0.00,,,0.00,0.000000,,2013-02-22 05:52:00,
2013-02-21 22:21:00,38.0,27.0,-100.00,WNW,287,14.0,24.0,63,0.00,,,0.00,0.000000,,2013-02-22 06:21:00,
2013-02-21 22:31:00,38.0,27.0,-100.00,WNW,287,14.0,24.0,63,0.00,,,0.00,0.000000,,2013-02-22 06:31:00,
2013-02-21 22:42:00,38.0,27.0,-100.00,WNW,287,14.0,24.0,63,0.00,,,0.00,0.000000,,2013-02-22 06:42:00,
2013-02-21 22:51:00,38.0,27.0,-100.00,WNW,287,14.0,24.0,63,0.00,,,0.00,0.000000,,2013-02-22 06:51:00,
2013-02-21 23:21:00,39.0,26.0,-100.00,WNW,292,12.0,23.0,59,0.00,,,0.00,0.000000,,2013-02-22 07:21:00,
2013-02-21 23:31:00,39.0,26.0,-100.00,WNW,292,12.0,23.0,59,0.00,,,0.00,0.000000,,2013-02-22 07:31:00,
2013-02-21 23:42:00,39.0,26.0,-100.00,WNW,292,12.0,23.0,59,0.00,,,0.00,0.000000,,2013-02-22 07:42:00,
2013-02-21 23:51:00,39.0,26.0,-100.00,WNW,292,12.0,23.0,59,0.00,,,0.00,0.000000,,2013-02-22 07:51:00,